HAZ11 RJTT-RJCC
Flight info
| Callsign | HAZ11 |
|---|---|
| Flight time | 1h 11m |
| Altitude | 37000 |
| Route | BRUCE AGRIS Y11 SAMBO Y119 OHMAR Y13 SIRAO Y139 NAVER |
| Aircraft | A320/M-SDE3FGHIRWY/LB1 |
Departure
| Time | 2026-05-05 12:32 |
|---|---|
| Airport | Tokyo Haneda International Airport (RJTT) |
Arrival
| Time | 2026-05-05 13:44 |
|---|---|
| Airport | New Chitose Airport (RJCC) |
| Time | Latitude | Longitude | Altitude | Speed | Heading |
|---|---|---|---|---|---|
| 2026-05-05 12:22 | 35.55883 | 139.77602 | 23 ft | 0 kts | 59° |
| 2026-05-05 12:26 | 35.55876 | 139.77586 | 24 ft | 4 kts | 58° |
| 2026-05-05 12:26 | 35.55861 | 139.77558 | 23 ft | 4 kts | 58° |
| 2026-05-05 12:26 | 35.55847 | 139.77530 | 24 ft | 4 kts | 57° |
| 2026-05-05 12:27 | 35.55832 | 139.77502 | 23 ft | 4 kts | 56° |
| 2026-05-05 12:27 | 35.55817 | 139.77475 | 23 ft | 4 kts | 52° |
| 2026-05-05 12:27 | 35.55799 | 139.77451 | 24 ft | 4 kts | 32° |
| 2026-05-05 12:27 | 35.55782 | 139.77444 | 24 ft | 0 kts | 330° |
| 2026-05-05 12:29 | 35.55784 | 139.77442 | 24 ft | 2 kts | 330° |
| 2026-05-05 12:30 | 35.55808 | 139.77426 | 24 ft | 4 kts | 330° |
| 2026-05-05 12:30 | 35.55826 | 139.77413 | 23 ft | 3 kts | 327° |
| 2026-05-05 12:30 | 35.55844 | 139.77364 | 23 ft | 10 kts | 257° |
| 2026-05-05 12:30 | 35.55772 | 139.77276 | 23 ft | 20 kts | 213° |
| 2026-05-05 12:31 | 35.55651 | 139.77180 | 25 ft | 20 kts | 207° |
| 2026-05-05 12:31 | 35.55543 | 139.77231 | 24 ft | 18 kts | 150° |
| 2026-05-05 12:31 | 35.55291 | 139.77410 | 23 ft | 76 kts | 149° |
| 2026-05-05 12:31 | 35.54654 | 139.77860 | 24 ft | 133 kts | 150° |
| 2026-05-05 12:32 | 35.53763 | 139.78500 | 389 ft | 149 kts | 150° |
| 2026-05-05 12:32 | 35.52863 | 139.79140 | 1090 ft | 149 kts | 153° |
| 2026-05-05 12:32 | 35.51968 | 139.79772 | 1803 ft | 149 kts | 154° |
| 2026-05-05 12:32 | 35.51026 | 139.80433 | 2214 ft | 166 kts | 154° |
| 2026-05-05 12:33 | 35.49956 | 139.81181 | 2519 ft | 188 kts | 154° |
| 2026-05-05 12:33 | 35.48761 | 139.82019 | 2875 ft | 207 kts | 154° |
| 2026-05-05 12:33 | 35.47474 | 139.82989 | 3393 ft | 227 kts | 144° |
| 2026-05-05 12:33 | 35.46505 | 139.84649 | 3851 ft | 258 kts | 110° |
| 2026-05-05 12:34 | 35.46507 | 139.86894 | 4620 ft | 275 kts | 73° |
| 2026-05-05 12:34 | 35.47587 | 139.88830 | 5519 ft | 282 kts | 38° |
| 2026-05-05 12:34 | 35.49377 | 139.89765 | 6419 ft | 284 kts | 7° |
| 2026-05-05 12:34 | 35.51354 | 139.89847 | 7317 ft | 286 kts | 354° |
| 2026-05-05 12:35 | 35.53338 | 139.89579 | 8165 ft | 289 kts | 350° |
| 2026-05-05 12:35 | 35.55339 | 139.89208 | 9025 ft | 292 kts | 349° |
| 2026-05-05 12:35 | 35.57364 | 139.88849 | 9884 ft | 296 kts | 351° |
| 2026-05-05 12:35 | 35.59452 | 139.88532 | 10436 ft | 312 kts | 352° |
| 2026-05-05 12:36 | 35.61614 | 139.88258 | 10687 ft | 336 kts | 353° |
| 2026-05-05 12:36 | 35.64023 | 139.88002 | 10899 ft | 359 kts | 354° |
| 2026-05-05 12:36 | 35.66579 | 139.87766 | 11247 ft | 375 kts | 354° |
| 2026-05-05 12:36 | 35.69203 | 139.87545 | 11903 ft | 380 kts | 355° |
| 2026-05-05 12:37 | 35.71821 | 139.87333 | 12621 ft | 384 kts | 355° |
| 2026-05-05 12:37 | 35.74497 | 139.87115 | 13347 ft | 387 kts | 354° |
| 2026-05-05 12:37 | 35.77197 | 139.86891 | 14066 ft | 390 kts | 354° |
| 2026-05-05 12:37 | 35.79920 | 139.86658 | 14706 ft | 393 kts | 354° |
| 2026-05-05 12:38 | 35.82658 | 139.86418 | 15322 ft | 397 kts | 354° |
| 2026-05-05 12:38 | 35.85423 | 139.86174 | 15934 ft | 400 kts | 354° |
| 2026-05-05 12:38 | 35.88206 | 139.85925 | 16536 ft | 403 kts | 354° |
| 2026-05-05 12:38 | 35.91007 | 139.85673 | 17116 ft | 406 kts | 354° |
| 2026-05-05 12:39 | 35.93838 | 139.85418 | 17696 ft | 409 kts | 354° |
| 2026-05-05 12:39 | 35.96689 | 139.85245 | 18259 ft | 413 kts | 359° |
| 2026-05-05 12:39 | 35.99562 | 139.85613 | 18777 ft | 419 kts | 9° |
| 2026-05-05 12:39 | 36.01442 | 139.86207 | 19092 ft | 422 kts | 16° |
| 2026-05-05 12:40 | 36.05104 | 139.87911 | 19706 ft | 427 kts | 19° |
| 2026-05-05 12:40 | 36.07893 | 139.89225 | 20165 ft | 431 kts | 18° |
| 2026-05-05 12:40 | 36.09753 | 139.90095 | 20466 ft | 433 kts | 18° |
| 2026-05-05 12:40 | 36.13546 | 139.91861 | 21062 ft | 438 kts | 18° |
| 2026-05-05 12:41 | 36.15438 | 139.92743 | 21357 ft | 440 kts | 17° |
| 2026-05-05 12:41 | 36.18337 | 139.93977 | 21770 ft | 441 kts | 11° |
| 2026-05-05 12:41 | 36.21351 | 139.94675 | 22209 ft | 440 kts | 2° |
| 2026-05-05 12:41 | 36.24402 | 139.94776 | 22640 ft | 439 kts | 354° |
| 2026-05-05 12:42 | 36.27460 | 139.94671 | 23066 ft | 441 kts | 354° |
| 2026-05-05 12:42 | 36.30540 | 139.94574 | 23482 ft | 444 kts | 354° |
| 2026-05-05 12:42 | 36.33639 | 139.94480 | 23891 ft | 447 kts | 354° |
| 2026-05-05 12:42 | 36.36761 | 139.94387 | 24231 ft | 450 kts | 354° |
| 2026-05-05 12:43 | 36.39902 | 139.94294 | 24571 ft | 453 kts | 354° |
| 2026-05-05 12:43 | 36.43061 | 139.94220 | 24915 ft | 456 kts | 354° |
| 2026-05-05 12:43 | 36.46241 | 139.94255 | 25258 ft | 459 kts | 356° |
| 2026-05-05 12:43 | 36.49447 | 139.94392 | 25579 ft | 463 kts | 357° |
| 2026-05-05 12:44 | 36.52676 | 139.94584 | 25894 ft | 465 kts | 357° |
| 2026-05-05 12:44 | 36.55918 | 139.94790 | 26202 ft | 468 kts | 357° |
| 2026-05-05 12:44 | 36.59175 | 139.94980 | 26500 ft | 470 kts | 356° |
| 2026-05-05 12:44 | 36.62446 | 139.95148 | 26807 ft | 472 kts | 356° |
| 2026-05-05 12:45 | 36.65735 | 139.95295 | 27107 ft | 474 kts | 355° |
| 2026-05-05 12:45 | 36.69039 | 139.95430 | 27389 ft | 476 kts | 355° |
| 2026-05-05 12:45 | 36.72356 | 139.95559 | 27687 ft | 478 kts | 355° |
| 2026-05-05 12:45 | 36.75686 | 139.95690 | 28007 ft | 479 kts | 355° |
| 2026-05-05 12:46 | 36.79017 | 139.95827 | 28438 ft | 478 kts | 355° |
| 2026-05-05 12:46 | 36.82336 | 139.95972 | 28861 ft | 478 kts | 355° |
| 2026-05-05 12:46 | 36.85658 | 139.96124 | 29263 ft | 477 kts | 355° |
| 2026-05-05 12:46 | 36.88981 | 139.96571 | 29679 ft | 485 kts | 3° |
| 2026-05-05 12:47 | 36.92298 | 139.97416 | 30095 ft | 486 kts | 4° |
| 2026-05-05 12:47 | 36.95608 | 139.98272 | 30487 ft | 486 kts | 4° |
| 2026-05-05 12:47 | 36.98917 | 139.99127 | 30801 ft | 486 kts | 3° |
| 2026-05-05 12:47 | 37.02232 | 139.99983 | 31103 ft | 486 kts | 2° |
| 2026-05-05 12:48 | 37.05548 | 140.00838 | 31397 ft | 487 kts | 2° |
| 2026-05-05 12:48 | 37.08872 | 140.01692 | 31695 ft | 488 kts | 2° |
| 2026-05-05 12:48 | 37.12151 | 140.02535 | 31996 ft | 488 kts | 1° |
| 2026-05-05 12:48 | 37.15484 | 140.03393 | 32272 ft | 489 kts | 1° |
| 2026-05-05 12:49 | 37.18815 | 140.04253 | 32578 ft | 489 kts | 1° |
| 2026-05-05 12:49 | 37.22151 | 140.05118 | 32866 ft | 490 kts | 1° |
| 2026-05-05 12:49 | 37.25489 | 140.05983 | 33174 ft | 490 kts | 0° |
| 2026-05-05 12:49 | 37.28831 | 140.06848 | 33489 ft | 491 kts | 0° |
| 2026-05-05 12:50 | 37.32174 | 140.07716 | 33809 ft | 491 kts | 0° |
| 2026-05-05 12:50 | 37.35518 | 140.08587 | 34079 ft | 491 kts | 0° |
| 2026-05-05 12:50 | 37.38867 | 140.09460 | 34373 ft | 491 kts | 360° |
| 2026-05-05 12:50 | 37.42210 | 140.10331 | 34682 ft | 491 kts | 0° |
| 2026-05-05 12:51 | 37.45552 | 140.11200 | 34993 ft | 490 kts | 0° |
| 2026-05-05 12:51 | 37.48886 | 140.12069 | 35289 ft | 489 kts | 0° |
| 2026-05-05 12:51 | 37.52213 | 140.12937 | 35571 ft | 488 kts | 0° |
| 2026-05-05 12:51 | 37.55542 | 140.13807 | 35848 ft | 488 kts | 0° |
| 2026-05-05 12:52 | 37.58866 | 140.14675 | 36136 ft | 487 kts | 0° |
| 2026-05-05 12:52 | 37.62186 | 140.15541 | 36413 ft | 487 kts | 0° |
| 2026-05-05 12:52 | 37.65502 | 140.16405 | 36675 ft | 487 kts | 0° |
| 2026-05-05 12:52 | 37.68814 | 140.17269 | 36922 ft | 486 kts | 0° |
| 2026-05-05 12:53 | 37.72127 | 140.18134 | 37171 ft | 486 kts | 0° |
| 2026-05-05 12:53 | 37.75446 | 140.19003 | 37257 ft | 488 kts | 0° |
| 2026-05-05 12:53 | 37.82098 | 140.20755 | 37250 ft | 488 kts | 1° |
| 2026-05-05 12:54 | 37.88598 | 140.22469 | 38067 ft | 464 kts | 6° |
| 2026-05-05 12:54 | 37.91787 | 140.23312 | 37331 ft | 477 kts | 12° |
| 2026-05-05 12:54 | 37.95086 | 140.24182 | 37043 ft | 491 kts | 11° |
| 2026-05-05 12:55 | 37.98460 | 140.25072 | 36995 ft | 498 kts | 11° |
| 2026-05-05 12:55 | 38.05315 | 140.26877 | 37010 ft | 509 kts | 11° |
| 2026-05-05 12:56 | 38.12327 | 140.28729 | 37011 ft | 520 kts | 11° |
| 2026-05-05 12:56 | 38.19481 | 140.30635 | 37010 ft | 530 kts | 11° |
| 2026-05-05 12:57 | 38.26766 | 140.32577 | 37009 ft | 538 kts | 11° |
| 2026-05-05 12:57 | 38.34029 | 140.34506 | 37009 ft | 540 kts | 11° |
| 2026-05-05 12:58 | 38.41426 | 140.36507 | 37009 ft | 540 kts | 13° |
| 2026-05-05 12:58 | 38.48707 | 140.38793 | 37014 ft | 547 kts | 15° |
| 2026-05-05 12:59 | 38.56132 | 140.41312 | 37010 ft | 557 kts | 15° |
| 2026-05-05 12:59 | 38.63694 | 140.43824 | 37010 ft | 564 kts | 14° |
| 2026-05-05 13:00 | 38.75149 | 140.47471 | 37003 ft | 567 kts | 14° |
| 2026-05-05 13:01 | 38.90326 | 140.52373 | 37005 ft | 568 kts | 14° |
| 2026-05-05 13:01 | 38.97985 | 140.54886 | 37003 ft | 568 kts | 14° |
| 2026-05-05 13:02 | 39.05646 | 140.57390 | 37014 ft | 568 kts | 14° |
| 2026-05-05 13:02 | 39.13309 | 140.59894 | 37024 ft | 568 kts | 14° |
| 2026-05-05 13:03 | 39.20965 | 140.62402 | 37026 ft | 568 kts | 14° |
| 2026-05-05 13:03 | 39.28614 | 140.64917 | 37029 ft | 567 kts | 14° |
| 2026-05-05 13:04 | 39.36261 | 140.67440 | 37027 ft | 567 kts | 14° |
| 2026-05-05 13:04 | 39.43909 | 140.69973 | 37013 ft | 567 kts | 15° |
| 2026-05-05 13:05 | 39.51560 | 140.72514 | 37003 ft | 568 kts | 14° |
| 2026-05-05 13:05 | 39.59223 | 140.75065 | 36996 ft | 569 kts | 13° |
| 2026-05-05 13:06 | 39.66785 | 140.77583 | 37003 ft | 569 kts | 15° |
| 2026-05-05 13:06 | 39.74454 | 140.80143 | 37009 ft | 569 kts | 14° |
| 2026-05-05 13:07 | 39.82135 | 140.82708 | 36994 ft | 570 kts | 15° |
| 2026-05-05 13:07 | 39.89825 | 140.85280 | 37002 ft | 571 kts | 14° |
| 2026-05-05 13:08 | 39.97483 | 140.87847 | 36996 ft | 572 kts | 14° |
| 2026-05-05 13:08 | 40.05196 | 140.90444 | 37027 ft | 573 kts | 14° |
| 2026-05-05 13:09 | 40.12904 | 140.93040 | 37032 ft | 572 kts | 14° |
| 2026-05-05 13:09 | 40.20687 | 140.95057 | 37036 ft | 568 kts | 2° |
| 2026-05-05 13:10 | 40.28564 | 140.95378 | 37028 ft | 566 kts | 359° |
| 2026-05-05 13:10 | 40.36443 | 140.95621 | 37026 ft | 566 kts | 359° |
| 2026-05-05 13:11 | 40.44323 | 140.95877 | 37023 ft | 566 kts | 359° |
| 2026-05-05 13:11 | 40.52203 | 140.96140 | 37030 ft | 566 kts | 359° |
| 2026-05-05 13:12 | 40.60078 | 140.96401 | 37033 ft | 566 kts | 359° |
| 2026-05-05 13:12 | 40.64019 | 140.96531 | 37446 ft | 563 kts | 354° |
| 2026-05-05 13:12 | 40.67758 | 140.96669 | 38093 ft | 511 kts | 2° |
| 2026-05-05 13:13 | 40.71217 | 140.96811 | 38551 ft | 491 kts | 1° |
| 2026-05-05 13:13 | 40.74585 | 140.96955 | 38982 ft | 477 kts | 353° |
| 2026-05-05 13:13 | 40.77846 | 140.97091 | 38833 ft | 464 kts | 353° |
| 2026-05-05 13:13 | 40.81059 | 140.97192 | 38336 ft | 460 kts | 353° |
| 2026-05-05 13:14 | 40.84245 | 140.97270 | 37774 ft | 456 kts | 353° |
| 2026-05-05 13:14 | 40.87411 | 140.97340 | 37241 ft | 453 kts | 353° |
| 2026-05-05 13:14 | 40.90547 | 140.97419 | 37050 ft | 450 kts | 354° |
| 2026-05-05 13:14 | 40.93689 | 140.97507 | 37100 ft | 454 kts | 354° |
| 2026-05-05 13:15 | 41.00055 | 140.97711 | 37102 ft | 460 kts | 354° |
| 2026-05-05 13:15 | 41.06457 | 140.97935 | 37102 ft | 460 kts | 354° |
| 2026-05-05 13:16 | 41.12856 | 140.98162 | 37099 ft | 460 kts | 354° |
| 2026-05-05 13:16 | 41.19251 | 140.98381 | 37098 ft | 459 kts | 354° |
| 2026-05-05 13:17 | 41.25639 | 140.98593 | 37102 ft | 459 kts | 354° |
| 2026-05-05 13:17 | 41.32042 | 140.99441 | 37105 ft | 472 kts | 8° |
| 2026-05-05 13:18 | 41.38293 | 141.02363 | 37106 ft | 477 kts | 13° |
| 2026-05-05 13:18 | 41.44525 | 141.05438 | 37103 ft | 478 kts | 13° |
| 2026-05-05 13:19 | 41.50757 | 141.08519 | 37097 ft | 478 kts | 13° |
| 2026-05-05 13:19 | 41.56991 | 141.11604 | 37097 ft | 478 kts | 13° |
| 2026-05-05 13:20 | 41.63133 | 141.14643 | 37093 ft | 478 kts | 13° |
| 2026-05-05 13:20 | 41.69365 | 141.17734 | 37096 ft | 478 kts | 13° |
| 2026-05-05 13:21 | 41.75589 | 141.20871 | 37094 ft | 478 kts | 14° |
| 2026-05-05 13:21 | 41.81803 | 141.24041 | 37091 ft | 478 kts | 14° |
| 2026-05-05 13:22 | 41.88013 | 141.27202 | 37083 ft | 476 kts | 14° |
| 2026-05-05 13:22 | 41.94095 | 141.30369 | 37057 ft | 468 kts | 18° |
| 2026-05-05 13:23 | 41.99527 | 141.35260 | 37064 ft | 483 kts | 38° |
| 2026-05-05 13:23 | 42.04392 | 141.41520 | 37058 ft | 484 kts | 38° |
| 2026-05-05 13:24 | 42.09251 | 141.47772 | 37057 ft | 483 kts | 38° |
| 2026-05-05 13:24 | 42.14219 | 141.53797 | 37060 ft | 476 kts | 30° |
| 2026-05-05 13:25 | 42.19509 | 141.59109 | 36623 ft | 472 kts | 30° |
| 2026-05-05 13:25 | 42.22116 | 141.61738 | 35851 ft | 463 kts | 30° |
| 2026-05-05 13:25 | 42.24664 | 141.64316 | 35173 ft | 453 kts | 30° |
| 2026-05-05 13:26 | 42.27155 | 141.66840 | 34514 ft | 442 kts | 30° |
| 2026-05-05 13:26 | 42.29587 | 141.69303 | 33847 ft | 432 kts | 30° |
| 2026-05-05 13:26 | 42.31969 | 141.71713 | 33030 ft | 424 kts | 30° |
| 2026-05-05 13:26 | 42.34318 | 141.74082 | 32146 ft | 420 kts | 30° |
| 2026-05-05 13:27 | 42.36653 | 141.76429 | 31257 ft | 417 kts | 30° |
| 2026-05-05 13:27 | 42.38221 | 141.78007 | 30665 ft | 415 kts | 30° |
| 2026-05-05 13:27 | 42.40498 | 141.80302 | 29775 ft | 413 kts | 30° |
| 2026-05-05 13:27 | 42.43562 | 141.83400 | 28509 ft | 409 kts | 30° |
| 2026-05-05 13:28 | 42.45066 | 141.84926 | 27905 ft | 407 kts | 30° |
| 2026-05-05 13:28 | 42.48072 | 141.87989 | 26782 ft | 402 kts | 31° |
| 2026-05-05 13:28 | 42.49547 | 141.89495 | 26240 ft | 400 kts | 31° |
| 2026-05-05 13:28 | 42.51758 | 141.91748 | 25450 ft | 395 kts | 30° |
| 2026-05-05 13:29 | 42.54082 | 141.93587 | 24697 ft | 380 kts | 15° |
| 2026-05-05 13:29 | 42.56558 | 141.94577 | 23959 ft | 364 kts | 0° |
| 2026-05-05 13:29 | 42.59034 | 141.94754 | 23130 ft | 350 kts | 347° |
| 2026-05-05 13:29 | 42.61409 | 141.94306 | 22292 ft | 342 kts | 343° |
| 2026-05-05 13:30 | 42.63747 | 141.93788 | 21526 ft | 339 kts | 343° |
| 2026-05-05 13:30 | 42.65967 | 141.93299 | 20830 ft | 335 kts | 343° |
| 2026-05-05 13:30 | 42.68256 | 141.92798 | 20114 ft | 331 kts | 343° |
| 2026-05-05 13:30 | 42.70523 | 141.92304 | 19427 ft | 328 kts | 343° |
| 2026-05-05 13:31 | 42.72766 | 141.91816 | 18758 ft | 325 kts | 343° |
| 2026-05-05 13:31 | 42.74848 | 141.91365 | 18127 ft | 322 kts | 343° |
| 2026-05-05 13:31 | 42.77050 | 141.90888 | 17412 ft | 319 kts | 343° |
| 2026-05-05 13:31 | 42.79226 | 141.90415 | 16723 ft | 315 kts | 343° |
| 2026-05-05 13:32 | 42.81380 | 141.89944 | 16064 ft | 312 kts | 343° |
| 2026-05-05 13:32 | 42.83518 | 141.89477 | 15427 ft | 309 kts | 343° |
| 2026-05-05 13:32 | 42.85632 | 141.89015 | 14814 ft | 306 kts | 343° |
| 2026-05-05 13:32 | 42.87727 | 141.88557 | 14188 ft | 304 kts | 343° |
| 2026-05-05 13:33 | 42.89806 | 141.88099 | 13582 ft | 301 kts | 343° |
| 2026-05-05 13:33 | 42.91869 | 141.87645 | 12917 ft | 299 kts | 342° |
| 2026-05-05 13:33 | 42.93893 | 141.87203 | 11997 ft | 292 kts | 342° |
| 2026-05-05 13:33 | 42.95890 | 141.86765 | 10912 ft | 289 kts | 342° |
| 2026-05-05 13:34 | 42.97869 | 141.86329 | 9871 ft | 287 kts | 341° |
| 2026-05-05 13:34 | 42.99825 | 141.85898 | 8753 ft | 283 kts | 341° |
| 2026-05-05 13:34 | 43.01745 | 141.85432 | 7754 ft | 272 kts | 334° |
| 2026-05-05 13:34 | 43.03352 | 141.84428 | 7078 ft | 239 kts | 313° |
| 2026-05-05 13:35 | 43.04467 | 141.82946 | 6488 ft | 211 kts | 295° |
| 2026-05-05 13:35 | 43.05102 | 141.81268 | 5952 ft | 198 kts | 280° |
| 2026-05-05 13:35 | 43.05340 | 141.79358 | 5491 ft | 206 kts | 266° |
| 2026-05-05 13:35 | 43.05165 | 141.77443 | 5209 ft | 207 kts | 252° |
| 2026-05-05 13:36 | 43.04575 | 141.75650 | 4973 ft | 208 kts | 238° |
| 2026-05-05 13:36 | 43.03636 | 141.74202 | 4741 ft | 208 kts | 223° |
| 2026-05-05 13:36 | 43.02420 | 141.73154 | 4533 ft | 205 kts | 216° |
| 2026-05-05 13:36 | 43.01208 | 141.72238 | 4327 ft | 190 kts | 216° |
| 2026-05-05 13:37 | 43.00105 | 141.71400 | 4139 ft | 174 kts | 216° |
| 2026-05-05 13:37 | 42.99101 | 141.70634 | 3983 ft | 156 kts | 217° |
| 2026-05-05 13:37 | 42.98212 | 141.69957 | 3826 ft | 138 kts | 217° |
| 2026-05-05 13:37 | 42.97418 | 141.69348 | 3684 ft | 124 kts | 218° |
| 2026-05-05 13:38 | 42.96699 | 141.68796 | 3563 ft | 115 kts | 218° |
| 2026-05-05 13:38 | 42.96014 | 141.68263 | 3453 ft | 113 kts | 218° |
| 2026-05-05 13:38 | 42.95333 | 141.67733 | 3337 ft | 113 kts | 218° |
| 2026-05-05 13:38 | 42.94651 | 141.67204 | 3230 ft | 113 kts | 218° |
| 2026-05-05 13:39 | 42.93969 | 141.66676 | 3119 ft | 113 kts | 217° |
| 2026-05-05 13:39 | 42.93189 | 141.66382 | 2988 ft | 128 kts | 186° |
| 2026-05-05 13:39 | 42.92306 | 141.66581 | 2805 ft | 124 kts | 191° |
| 2026-05-05 13:39 | 42.91456 | 141.66659 | 2661 ft | 121 kts | 187° |
| 2026-05-05 13:40 | 42.90621 | 141.66773 | 2486 ft | 120 kts | 186° |
| 2026-05-05 13:40 | 42.89801 | 141.66900 | 2315 ft | 118 kts | 185° |
| 2026-05-05 13:40 | 42.88986 | 141.67033 | 2151 ft | 118 kts | 184° |
| 2026-05-05 13:40 | 42.88173 | 141.67171 | 1994 ft | 118 kts | 182° |
| 2026-05-05 13:41 | 42.87356 | 141.67311 | 1825 ft | 119 kts | 181° |
| 2026-05-05 13:41 | 42.86531 | 141.67455 | 1672 ft | 120 kts | 180° |
| 2026-05-05 13:41 | 42.85703 | 141.67600 | 1493 ft | 120 kts | 180° |
| 2026-05-05 13:41 | 42.84865 | 141.67748 | 1328 ft | 123 kts | 178° |
| 2026-05-05 13:42 | 42.84011 | 141.67898 | 1168 ft | 123 kts | 176° |
| 2026-05-05 13:42 | 42.83159 | 141.68048 | 994 ft | 124 kts | 174° |
| 2026-05-05 13:42 | 42.82306 | 141.68199 | 819 ft | 123 kts | 172° |
| 2026-05-05 13:42 | 42.81470 | 141.68347 | 649 ft | 120 kts | 172° |
| 2026-05-05 13:43 | 42.80648 | 141.68492 | 479 ft | 118 kts | 172° |
| 2026-05-05 13:43 | 42.79828 | 141.68638 | 337 ft | 120 kts | 172° |
| 2026-05-05 13:43 | 42.79005 | 141.68787 | 153 ft | 119 kts | 172° |
| 2026-05-05 13:43 | 42.78255 | 141.68922 | 87 ft | 84 kts | 173° |
| 2026-05-05 13:44 | 42.77911 | 141.68979 | 85 ft | 38 kts | 173° |
| 2026-05-05 13:44 | 42.77640 | 141.69031 | 84 ft | 37 kts | 170° |
| 2026-05-05 13:44 | 42.77501 | 141.68883 | 81 ft | 25 kts | 268° |
| 2026-05-05 13:44 | 42.77575 | 141.68680 | 85 ft | 23 kts | 301° |
| 2026-05-05 13:45 | 42.77694 | 141.68600 | 86 ft | 19 kts | 354° |
| 2026-05-05 13:45 | 42.77818 | 141.68580 | 86 ft | 17 kts | 352° |
| 2026-05-05 13:45 | 42.77930 | 141.68560 | 84 ft | 15 kts | 353° |
| 2026-05-05 13:45 | 42.78031 | 141.68543 | 88 ft | 14 kts | 352° |
| 2026-05-05 13:46 | 42.78123 | 141.68526 | 89 ft | 12 kts | 352° |
| 2026-05-05 13:46 | 42.78215 | 141.68509 | 86 ft | 17 kts | 352° |
| 2026-05-05 13:46 | 42.78362 | 141.68485 | 86 ft | 25 kts | 353° |
| 2026-05-05 13:46 | 42.78496 | 141.68362 | 89 ft | 23 kts | 308° |
| 2026-05-05 13:47 | 42.78549 | 141.68261 | 89 ft | 9 kts | 304° |
| 2026-05-05 13:47 | 42.78570 | 141.68217 | 88 ft | 4 kts | 304° |
| 2026-05-05 13:47 | 42.78579 | 141.68201 | 91 ft | 1 kts | 304° |
| 2026-05-05 13:47 | 42.78579 | 141.68199 | 90 ft | 0 kts | 304° |